Time;durP1;ratioP1;P1;durP2;ratioP2;P2;SDS_P1;SDS_P2;PMS_P1;PMS_P2;Temp;Humidity;BMP_temperature;BMP_pressure;BME280_temperature;BME280_humidity;BME280_pressure;Samples;Min_cycle;Max_cycle;Signal;HPM_P1;HPM_P2
2023/08/19 00:00:17;;;;;;;14.43;9.75;;;24.40;99.90;;;;;;5031477;28;20623;-46
2023/08/19 00:02:43;;;;;;;14.43;9.50;;;24.40;99.90;;;;;;5034014;28;20233;-46
2023/08/19 00:05:10;;;;;;;13.27;8.85;;;24.30;99.90;;;;;;5034161;28;20179;-46
2023/08/19 00:07:36;;;;;;;12.63;9.30;;;24.30;99.90;;;;;;5035652;28;20591;-47
2023/08/19 00:10:03;;;;;;;10.70;9.18;;;24.30;99.90;;;;;;5035504;28;20172;-46
2023/08/19 00:12:29;;;;;;;9.80;8.85;;;24.30;99.90;;;;;;5035048;28;20215;-46
2023/08/19 00:14:55;;;;;;;10.57;8.85;;;26.70;99.90;;;;;;5035165;28;20167;-47
2023/08/19 00:17:25;;;;;;;14.10;9.93;;;24.20;99.90;;;;;;5035142;28;20210;-47
2023/08/19 00:19:51;;;;;;;13.13;9.55;;;24.20;99.90;;;;;;5035172;28;20164;-46
2023/08/19 00:22:20;;;;;;;12.60;9.27;;;24.10;99.90;;;;;;5035257;28;20541;-47
2023/08/19 00:24:45;;;;;;;14.63;9.27;;;24.10;99.90;;;;;;5035067;28;20168;-46
2023/08/19 00:27:13;;;;;;;12.90;9.32;;;24.10;99.90;;;;;;5034931;28;20526;-46
2023/08/19 00:29:38;;;;;;;12.05;8.90;;;24.10;99.90;;;;;;5035312;28;20176;-47
2023/08/19 00:32:04;;;;;;;13.02;8.73;;;24.00;99.90;;;;;;5034969;28;20171;-46
2023/08/19 00:34:29;;;;;;;12.32;9.05;;;24.00;99.90;;;;;;5034889;28;20521;-46
2023/08/19 00:36:56;;;;;;;11.15;9.32;;;24.00;99.90;;;;;;5034435;28;20254;-46
2023/08/19 00:39:22;;;;;;;9.65;8.65;;;24.10;99.90;;;;;;5034884;28;20176;-47
2023/08/19 00:41:48;;;;;;;10.13;9.13;;;23.90;99.90;;;;;;5034714;28;20179;-47
2023/08/19 00:44:14;;;;;;;9.25;8.25;;;24.00;99.90;;;;;;5034577;28;20194;-46
2023/08/19 00:46:40;;;;;;;15.77;9.35;;;23.90;99.90;;;;;;5035049;28;20186;-47
2023/08/19 00:49:06;;;;;;;15.77;9.10;;;24.00;99.90;;;;;;5034972;28;20190;-47
2023/08/19 00:51:32;;;;;;;12.60;8.60;;;23.80;99.90;;;;;;5034548;28;20678;-46
2023/08/19 00:53:58;;;;;;;11.40;8.52;;;23.80;99.90;;;;;;5034496;28;20576;-46
2023/08/19 00:56:24;;;;;;;13.35;9.25;;;23.80;99.90;;;;;;5034334;28;20245;-46
2023/08/19 00:58:49;;;;;;;10.75;8.25;;;23.80;99.90;;;;;;5034362;28;20163;-46
2023/08/19 01:01:15;;;;;;;9.77;8.43;;;23.80;99.90;;;;;;5034502;28;20225;-47
2023/08/19 01:03:40;;;;;;;11.05;8.55;;;23.70;99.90;;;;;;5034368;28;20536;-46
2023/08/19 01:06:29;;;;;;;10.45;8.00;;;23.70;99.90;;;;;;5033748;28;20167;-47
2023/08/19 01:09:16;;;;;;;14.68;8.10;;;23.70;99.90;;;;;;5034292;28;20197;-47
2023/08/19 01:11:47;;;;;;;11.35;7.80;;;23.60;99.90;;;;;;5033769;28;20635;-47
2023/08/19 01:14:36;;;;;;;11.68;8.40;;;23.60;99.90;;;;;;5034190;28;20184;-47
2023/08/19 01:17:03;;;;;;;13.40;8.23;;;23.50;99.90;;;;;;5032279;28;20203;-46
2023/08/19 01:19:31;;;;;;;11.57;8.18;;;23.60;99.90;;;;;;5033277;28;20175;-47
2023/08/19 01:22:05;;;;;;;12.68;8.43;;;23.50;99.90;;;;;;5033917;28;20616;-46
2023/08/19 01:24:40;;;;;;;11.07;8.43;;;23.50;99.90;;;;;;5033910;28;20195;-46
2023/08/19 01:27:20;;;;;;;9.35;7.15;;;23.40;99.90;;;;;;5034590;28;20171;-46
2023/08/19 01:29:46;;;;;;;12.20;7.43;;;23.40;99.90;;;;;;5033919;28;20191;-47
2023/08/19 01:32:13;;;;;;;10.32;7.68;;;23.30;99.90;;;;;;5033801;28;20611;-46
2023/08/19 01:34:38;;;;;;;9.25;7.07;;;23.40;99.90;;;;;;5034404;28;20254;-46
2023/08/19 01:37:07;;;;;;;10.15;7.40;;;23.40;99.90;;;;;;5015720;28;20290;-47
2023/08/19 01:39:36;;;;;;;10.02;7.13;;;23.30;99.90;;;;;;5013837;28;20164;-47
2023/08/19 01:42:03;;;;;;;13.15;7.15;;;23.20;99.90;;;;;;5013792;28;20263;-46
2023/08/19 01:44:30;;;;;;;14.52;7.63;;;23.20;99.90;;;;;;5013826;28;20650;-46
2023/08/19 01:46:56;;;;;;;10.07;6.88;;;23.20;99.90;;;;;;5013664;28;20171;-46
2023/08/19 01:49:21;;;;;;;9.10;6.90;;;23.20;99.90;;;;;;5013686;28;20254;-47
2023/08/19 01:51:48;;;;;;;12.02;7.30;;;23.10;99.90;;;;;;5013621;28;20168;-47
2023/08/19 01:54:14;;;;;;;10.13;6.78;;;23.20;99.90;;;;;;5013597;28;20164;-47
2023/08/19 01:56:39;;;;;;;11.15;7.10;;;23.10;99.90;;;;;;5013812;28;20265;-46
2023/08/19 01:59:05;;;;;;;8.60;6.93;;;23.10;99.90;;;;;;5013949;28;20233;-46
2023/08/19 02:01:30;;;;;;;9.05;7.22;;;23.10;99.90;;;;;;5013506;28;20662;-47
2023/08/19 02:03:56;;;;;;;13.32;6.90;;;23.00;99.90;;;;;;5013488;28;20247;-46
2023/08/19 02:06:21;;;;;;;12.52;8.27;;;23.10;99.90;;;;;;5024750;28;20175;-46
2023/08/19 02:08:47;;;;;;;9.15;6.50;;;23.10;99.90;;;;;;5032855;28;20179;-46
2023/08/19 02:11:13;;;;;;;10.48;6.32;;;23.00;99.90;;;;;;5031752;28;20173;-46
2023/08/19 02:13:38;;;;;;;12.38;7.00;;;23.20;99.90;;;;;;5033221;28;20227;-47
2023/08/19 02:16:04;;;;;;;11.65;6.80;;;23.00;99.90;;;;;;5032915;28;20500;-46
2023/08/19 02:18:29;;;;;;;9.70;6.28;;;23.10;99.90;;;;;;5032895;28;20167;-47
2023/08/19 02:20:55;;;;;;;11.77;6.40;;;23.00;99.90;;;;;;5032647;28;20199;-46
2023/08/19 02:23:20;;;;;;;10.82;6.30;;;23.10;99.90;;;;;;5032018;28;20160;-46
2023/08/19 02:25:46;;;;;;;8.23;6.22;;;23.00;99.90;;;;;;5032718;28;20171;-46
2023/08/19 02:28:11;;;;;;;10.45;6.45;;;23.10;99.90;;;;;;5032724;28;20171;-46
2023/08/19 02:30:39;;;;;;;9.23;6.00;;;23.00;99.90;;;;;;5032937;28;20163;-46
2023/08/19 02:33:06;;;;;;;7.32;6.22;;;23.00;99.90;;;;;;5032890;28;20651;-47
2023/08/19 02:35:32;;;;;;;7.93;6.28;;;23.00;99.90;;;;;;5027588;28;20609;-47
2023/08/19 02:37:57;;;;;;;10.93;6.03;;;23.00;99.90;;;;;;5012587;28;20295;-47
2023/08/19 02:40:23;;;;;;;7.88;6.10;;;22.90;99.90;;;;;;5012849;28;20628;-46
2023/08/19 02:42:48;;;;;;;11.25;5.88;;;23.00;99.90;;;;;;5012841;28;20185;-46
2023/08/19 02:45:14;;;;;;;9.02;5.70;;;23.00;99.90;;;;;;5012631;28;20655;-47
2023/08/19 02:47:39;;;;;;;12.02;7.50;;;22.90;99.90;;;;;;5012664;28;20167;-47
2023/08/19 02:50:06;;;;;;;13.73;5.78;;;23.00;99.90;;;;;;5012830;28;20628;-46
2023/08/19 02:52:31;;;;;;;7.25;5.47;;;22.90;99.90;;;;;;5012731;28;20176;-47
2023/08/19 02:54:57;;;;;;;10.48;6.40;;;22.90;99.90;;;;;;5012524;28;20658;-47
2023/08/19 02:57:22;;;;;;;9.02;5.25;;;23.00;99.90;;;;;;5012351;28;20700;-46
2023/08/19 02:59:48;;;;;;;10.18;5.85;;;23.00;99.90;;;;;;5012465;28;20247;-46
2023/08/19 03:02:13;;;;;;;7.50;5.63;;;23.00;99.90;;;;;;5012636;28;20226;-47
2023/08/19 03:04:39;;;;;;;10.77;5.50;;;22.90;99.90;;;;;;5013812;28;20699;-46
2023/08/19 03:07:04;;;;;;;7.57;5.13;;;22.90;99.90;;;;;;5032368;28;20175;-47
2023/08/19 03:09:30;;;;;;;13.18;6.20;;;22.90;99.90;;;;;;5031978;28;20225;-49
2023/08/19 03:11:55;;;;;;;6.35;5.18;;;22.90;99.90;;;;;;5031816;28;20284;-46
2023/08/19 03:14:21;;;;;;;8.70;5.50;;;22.90;99.90;;;;;;5031675;28;20258;-46
2023/08/19 03:16:46;;;;;;;6.72;5.05;;;22.90;99.90;;;;;;5031710;28;20258;-46
2023/08/19 03:19:14;;;;;;;12.35;5.95;;;22.80;99.90;;;;;;5031451;28;20179;-47
2023/08/19 03:21:40;;;;;;;13.60;5.68;;;22.90;99.90;;;;;;5031719;28;20172;-46
2023/08/19 03:24:06;;;;;;;10.30;5.72;;;22.80;99.90;;;;;;5032453;28;20182;-46
2023/08/19 03:26:31;;;;;;;8.70;5.55;;;22.80;99.90;;;;;;5031670;28;20168;-46
2023/08/19 03:28:57;;;;;;;6.82;5.57;;;22.80;99.90;;;;;;5031909;28;20167;-46
2023/08/19 03:31:23;;;;;;;11.13;5.95;;;22.70;99.90;;;;;;5030382;28;20183;-47
2023/08/19 03:33:48;;;;;;;7.47;5.15;;;22.70;99.90;;;;;;5031922;28;20171;-46
2023/08/19 03:36:14;;;;;;;10.27;5.50;;;22.80;99.90;;;;;;5030376;28;20256;-47
2023/08/19 03:38:39;;;;;;;11.52;5.80;;;22.80;99.90;;;;;;5031223;28;20183;-47
2023/08/19 03:41:05;;;;;;;8.40;5.53;;;22.80;99.90;;;;;;5031866;28;20159;-46
2023/08/19 03:43:31;;;;;;;5.60;5.05;;;22.80;99.90;;;;;;5031600;28;20246;-47
2023/08/19 03:45:56;;;;;;;10.95;5.50;;;22.80;99.90;;;;;;5031726;28;20169;-46
2023/08/19 03:48:22;;;;;;;10.52;5.70;;;22.80;99.90;;;;;;5030189;28;20666;-46
2023/08/19 03:50:47;;;;;;;9.73;5.68;;;22.80;99.90;;;;;;5031397;28;20254;-47
2023/08/19 03:53:13;;;;;;;11.05;5.55;;;22.80;99.90;;;;;;5031448;28;20183;-46
2023/08/19 03:55:38;;;;;;;6.63;4.80;;;22.80;99.90;;;;;;5031636;28;20222;-47
2023/08/19 03:58:04;;;;;;;9.95;5.22;;;22.70;99.90;;;;;;5031303;28;20186;-47
2023/08/19 04:00:29;;;;;;;8.45;5.45;;;22.70;99.90;;;;;;5031311;28;20171;-47
2023/08/19 04:02:55;;;;;;;6.63;5.40;;;22.70;99.90;;;;;;5031175;28;20246;-47
2023/08/19 04:05:20;;;;;;;9.82;5.32;;;22.60;99.90;;;;;;5031019;28;20163;-47
2023/08/19 04:07:46;;;;;;;9.45;5.85;;;22.60;99.90;;;;;;5031198;28;20237;-46
2023/08/19 04:10:11;;;;;;;10.35;5.65;;;22.70;99.90;;;;;;5031240;28;20168;-46
2023/08/19 04:12:37;;;;;;;8.35;5.53;;;22.60;99.90;;;;;;5031385;28;20211;-47
2023/08/19 04:15:03;;;;;;;7.30;5.55;;;22.60;99.90;;;;;;5031441;28;20509;-47
2023/08/19 04:17:32;;;;;;;8.68;5.50;;;22.60;99.90;;;;;;5030958;28;20567;-46
2023/08/19 04:19:57;;;;;;;8.75;5.30;;;22.50;99.90;;;;;;5031078;28;20246;-47
2023/08/19 04:22:23;;;;;;;7.55;5.40;;;22.60;99.90;;;;;;5031131;28;20198;-47
2023/08/19 04:24:50;;;;;;;13.55;5.50;;;22.60;99.90;;;;;;5031361;28;20167;-46
2023/08/19 04:27:17;;;;;;;9.38;5.47;;;22.50;99.90;;;;;;5031059;28;20254;-47
2023/08/19 04:29:42;;;;;;;11.30;5.90;;;22.60;99.90;;;;;;5031089;28;20194;-46
2023/08/19 04:32:08;;;;;;;10.40;5.63;;;22.60;99.90;;;;;;5030185;28;20176;-46
2023/08/19 04:34:33;;;;;;;13.45;5.90;;;22.60;99.90;;;;;;5030312;28;20175;-47
2023/08/19 04:36:59;;;;;;;9.38;5.63;;;22.60;99.90;;;;;;5030806;28;20199;-46
2023/08/19 04:39:24;;;;;;;7.68;5.50;;;22.60;99.90;;;;;;5030729;28;20251;-46
2023/08/19 04:41:50;;;;;;;9.75;5.25;;;22.60;99.90;;;;;;5031125;28;20172;-46
2023/08/19 04:44:16;;;;;;;8.38;4.90;;;22.70;99.90;;;;;;5030861;28;20179;-47
2023/08/19 04:46:42;;;;;;;7.97;5.50;;;22.60;99.90;;;;;;5031895;28;20175;-46
2023/08/19 04:49:08;;;;;;;8.85;5.30;;;22.60;99.90;;;;;;5034920;28;20187;-46
2023/08/19 04:51:35;;;;;;;8.18;5.57;;;22.70;99.90;;;;;;5034994;28;20631;-46
2023/08/19 04:54:00;;;;;;;7.55;5.82;;;22.60;99.90;;;;;;5034459;28;20165;-46
2023/08/19 04:56:26;;;;;;;10.88;5.30;;;22.60;99.90;;;;;;5034602;28;20203;-47
2023/08/19 04:58:52;;;;;;;10.35;5.35;;;22.70;99.90;;;;;;5033384;28;20194;-46
2023/08/19 05:01:17;;;;;;;10.18;5.47;;;22.70;99.90;;;;;;5034531;28;20228;-46
2023/08/19 05:03:43;;;;;;;12.05;5.65;;;22.80;99.90;;;;;;5032269;28;20585;-47
2023/08/19 05:06:09;;;;;;;7.18;5.43;;;22.80;99.90;;;;;;5014428;28;20243;-47
2023/08/19 05:08:34;;;;;;;10.13;5.85;;;22.80;99.90;;;;;;5014900;28;20172;-46
2023/08/19 05:11:00;;;;;;;11.27;5.32;;;22.80;99.90;;;;;;5013151;28;20207;-47
2023/08/19 05:13:26;;;;;;;10.10;5.20;;;22.90;99.90;;;;;;5014369;28;20232;-47
2023/08/19 05:15:51;;;;;;;9.20;5.80;;;22.90;99.90;;;;;;5014428;28;20197;-46
2023/08/19 05:18:17;;;;;;;6.28;5.55;;;22.90;99.90;;;;;;5014308;28;20703;-47
2023/08/19 05:20:42;;;;;;;6.82;5.28;;;23.00;99.90;;;;;;5014447;28;20650;-46
2023/08/19 05:23:08;;;;;;;10.35;5.85;;;22.90;99.90;;;;;;5014547;28;20665;-46
2023/08/19 05:25:33;;;;;;;10.32;5.47;;;23.00;99.90;;;;;;5014720;28;20682;-46
2023/08/19 05:27:59;;;;;;;9.63;5.43;;;23.00;99.90;;;;;;5014123;28;20632;-46
2023/08/19 05:30:24;;;;;;;9.48;5.57;;;23.00;99.90;;;;;;5014013;28;20628;-46
2023/08/19 05:32:50;;;;;;;10.30;5.63;;;23.00;99.90;;;;;;5013588;28;20168;-46
2023/08/19 05:35:16;;;;;;;9.00;5.65;;;23.00;99.90;;;;;;5027589;28;20190;-46
2023/08/19 05:37:43;;;;;;;7.90;5.50;;;23.00;99.90;;;;;;5033511;28;20218;-52
2023/08/19 05:40:08;;;;;;;7.05;5.60;;;23.10;99.90;;;;;;5033597;28;20653;-46
2023/08/19 05:42:34;;;;;;;9.38;5.60;;;23.10;99.90;;;;;;5033632;28;20254;-46
2023/08/19 05:45:00;;;;;;;9.55;5.07;;;23.20;99.90;;;;;;5033310;28;20167;-47
2023/08/19 05:47:26;;;;;;;7.20;5.00;;;23.10;99.90;;;;;;5033228;28;20198;-46
2023/08/19 05:49:51;;;;;;;8.00;5.97;;;23.10;99.90;;;;;;5032123;28;20170;-46
2023/08/19 05:52:17;;;;;;;8.48;5.60;;;23.10;99.90;;;;;;5033462;28;20233;-46
2023/08/19 05:54:42;;;;;;;10.10;6.00;;;23.10;99.90;;;;;;5032984;28;20188;-46
2023/08/19 05:57:08;;;;;;;11.25;5.60;;;23.20;99.90;;;;;;5033892;28;20215;-46
2023/08/19 05:59:33;;;;;;;10.23;4.95;;;23.40;99.90;;;;;;5032588;28;20194;-46
2023/08/19 06:01:59;;;;;;;7.95;6.10;;;23.30;99.90;;;;;;5033426;28;20186;-46
2023/08/19 06:04:25;;;;;;;9.07;5.57;;;23.30;99.90;;;;;;5025149;28;20184;-46
2023/08/19 06:06:51;;;;;;;9.90;5.85;;;23.30;99.90;;;;;;5013557;28;20178;-47
2023/08/19 06:09:17;;;;;;;7.55;6.10;;;23.40;99.90;;;;;;5013423;28;20535;-46
2023/08/19 06:11:52;;;;;;;9.95;5.97;;;23.40;99.90;;;;;;5013142;28;20176;-46
2023/08/19 06:14:19;;;;;;;12.30;7.07;;;23.50;99.90;;;;;;5013195;28;20703;-46
2023/08/19 06:16:45;;;;;;;7.93;5.97;;;23.60;99.90;;;;;;5013119;28;20651;-46
2023/08/19 06:19:11;;;;;;;8.70;6.03;;;23.60;99.90;;;;;;5013397;28;20174;-46
2023/08/19 06:21:37;;;;;;;11.75;6.97;;;23.70;99.90;;;;;;5013097;28;20167;-46
2023/08/19 06:24:04;;;;;;;10.23;6.18;;;23.70;99.90;;;;;;5012989;28;20172;-46
2023/08/19 06:26:30;;;;;;;10.13;6.55;;;23.80;99.90;;;;;;5012774;28;20251;-46
2023/08/19 06:28:55;;;;;;;10.77;6.80;;;23.80;99.90;;;;;;5012592;28;20281;-46
2023/08/19 06:31:21;;;;;;;12.93;6.00;;;23.80;99.90;;;;;;5012686;28;20193;-46
2023/08/19 06:33:47;;;;;;;10.38;7.05;;;23.80;99.90;;;;;;5018591;28;20516;-46
2023/08/19 06:36:22;;;;;;;12.32;6.68;;;23.70;99.90;;;;;;5031885;28;20218;-49
2023/08/19 06:38:52;;;;;;;13.43;7.05;;;23.80;99.90;;;;;;5032033;28;20518;-52
2023/08/19 06:41:18;;;;;;;7.85;5.95;;;23.80;99.90;;;;;;5032463;28;20159;-49
2023/08/19 06:43:44;;;;;;;13.80;6.65;;;23.90;99.90;;;;;;5032409;28;20166;-52
2023/08/19 06:46:10;;;;;;;13.55;6.95;;;23.90;99.90;;;;;;5032326;28;20186;-52
2023/08/19 06:48:36;;;;;;;14.48;6.05;;;24.00;99.90;;;;;;5032950;28;20645;-53
2023/08/19 06:51:03;;;;;;;11.93;6.65;;;24.10;99.90;;;;;;5031841;28;20232;-47
2023/08/19 06:53:29;;;;;;;13.30;7.00;;;24.10;99.90;;;;;;5032462;28;20178;-47
2023/08/19 06:56:10;;;;;;;17.58;7.13;;;24.20;99.90;;;;;;5031821;28;20702;-49
2023/08/19 06:58:51;;;;;;;15.25;7.15;;;24.30;99.90;;;;;;5032075;28;20724;-52
2023/08/19 07:01:22;;;;;;;9.38;6.28;;;24.40;99.90;;;;;;5032036;28;20178;-52
2023/08/19 07:03:50;;;;;;;9.20;5.82;;;24.40;99.90;;;;;;5025640;28;20167;-50
2023/08/19 07:06:20;;;;;;;6.45;5.00;;;24.50;99.90;;;;;;5012309;28;20171;-48
2023/08/19 07:08:45;;;;;;;7.50;4.90;;;24.50;99.90;;;;;;5012145;28;20178;-47
2023/08/19 07:11:12;;;;;;;9.82;5.22;;;24.60;99.90;;;;;;5011948;28;20167;-47
2023/08/19 07:13:38;;;;;;;7.93;5.15;;;24.60;99.90;;;;;;5011116;28;20245;-46
2023/08/19 07:16:05;;;;;;;11.18;5.10;;;24.60;99.90;;;;;;5012486;28;20623;-46
2023/08/19 07:18:37;;;;;;;9.82;5.13;;;24.70;99.90;;;;;;5011958;28;20587;-47
2023/08/19 07:21:04;;;;;;;8.52;5.55;;;24.70;99.90;;;;;;5011534;28;20159;-51
2023/08/19 07:23:30;;;;;;;10.63;5.18;;;24.70;99.90;;;;;;5012041;28;20191;-52
2023/08/19 07:25:58;;;;;;;6.78;4.53;;;24.80;99.90;;;;;;5010369;28;20167;-50
2023/08/19 07:28:24;;;;;;;5.88;4.90;;;25.00;99.90;;;;;;5012165;28;20167;-53
2023/08/19 07:30:51;;;;;;;14.27;4.63;;;25.00;99.90;;;;;;5010503;28;20225;-50
2023/08/19 07:33:16;;;;;;;5.15;4.65;;;25.30;99.90;;;;;;5017942;28;20545;-51
2023/08/19 07:35:45;;;;;;;6.85;4.65;;;25.60;99.90;;;;;;5031612;28;20170;-52
2023/08/19 07:38:11;;;;;;;9.95;4.35;;;25.70;99.90;;;;;;5031372;28;20674;-52
2023/08/19 07:40:36;;;;;;;7.80;4.03;;;25.60;99.90;;;;;;5031848;28;20209;-52
2023/08/19 07:43:02;;;;;;;9.90;4.60;;;25.60;99.90;;;;;;5031147;28;20693;-52
2023/08/19 07:45:28;;;;;;;7.78;4.95;;;25.60;99.90;;;;;;5031589;28;20245;-48
2023/08/19 07:47:53;;;;;;;8.45;4.70;;;25.70;99.90;;;;;;5031088;28;20197;-47
2023/08/19 07:50:19;;;;;;;7.85;4.20;;;25.70;99.90;;;;;;5031654;28;20167;-52
2023/08/19 07:52:44;;;;;;;10.07;4.55;;;25.80;99.90;;;;;;5031325;28;20535;-47
2023/08/19 07:55:10;;;;;;;12.35;4.90;;;25.80;99.90;;;;;;5030919;28;20661;-48
2023/08/19 07:57:36;;;;;;;9.77;5.03;;;25.90;99.90;;;;;;5031454;28;20586;-46
2023/08/19 08:00:02;;;;;;;7.65;4.40;;;26.00;99.90;;;;;;5031281;28;20201;-46
2023/08/19 08:02:27;;;;;;;11.70;5.10;;;25.90;99.90;;;;;;5031341;28;20189;-48
2023/08/19 08:04:53;;;;;;;9.73;4.40;;;25.90;99.90;;;;;;5030145;28;20163;-46
2023/08/19 08:07:19;;;;;;;12.10;4.97;;;26.00;99.90;;;;;;5031495;28;20182;-48
2023/08/19 08:09:45;;;;;;;8.13;4.32;;;26.00;99.90;;;;;;5031385;28;20250;-48
2023/08/19 08:12:11;;;;;;;10.95;4.68;;;26.00;99.90;;;;;;5031171;28;20222;-46
2023/08/19 08:14:37;;;;;;;8.50;4.60;;;25.80;99.90;;;;;;5031674;28;20212;-46
2023/08/19 08:17:02;;;;;;;11.75;4.93;;;25.90;99.90;;;;;;5030958;28;20661;-46
2023/08/19 08:19:28;;;;;;;11.63;4.63;;;26.00;99.90;;;;;;5027556;28;20171;-46
2023/08/19 08:21:54;;;;;;;11.25;4.63;;;25.90;99.90;;;;;;5031726;28;20163;-46
2023/08/19 08:24:20;;;;;;;8.75;4.22;;;26.10;99.90;;;;;;5035073;28;20163;-46
2023/08/19 08:26:46;;;;;;;6.88;4.00;;;26.10;99.90;;;;;;5034976;28;20174;-46
2023/08/19 08:29:12;;;;;;;11.60;4.70;;;26.10;99.90;;;;;;5034907;28;20167;-46
2023/08/19 08:31:38;;;;;;;5.72;4.28;;;26.40;99.90;;;;;;5034946;28;20630;-46
2023/08/19 08:34:04;;;;;;;10.15;4.47;;;26.50;99.90;;;;;;5022792;28;20537;-46
2023/08/19 08:36:29;;;;;;;11.10;4.90;;;26.80;99.90;;;;;;5013602;28;20207;-46
2023/08/19 08:38:55;;;;;;;7.85;4.47;;;27.00;99.90;;;;;;5013465;28;20646;-46
2023/08/19 08:41:21;;;;;;;7.97;4.00;;;26.80;99.90;;;;;;5014974;28;20631;-46
2023/08/19 08:43:50;;;;;;;7.53;4.05;;;26.90;99.90;;;;;;5014490;28;20518;-52
2023/08/19 08:46:19;;;;;;;10.05;4.68;;;26.90;99.90;;;;;;5014529;28;20168;-51
2023/08/19 08:48:45;;;;;;;11.30;5.63;;;27.00;99.90;;;;;;5014482;28;20255;-51
2023/08/19 08:51:14;;;;;;;9.82;4.65;;;27.20;99.90;;;;;;5014658;28;20556;-51
2023/08/19 08:53:39;;;;;;;8.43;4.82;;;27.20;99.90;;;;;;5014350;28;20176;-51
2023/08/19 08:56:06;;;;;;;9.27;4.60;;;27.30;99.90;;;;;;5014700;28;20751;-51
2023/08/19 08:58:31;;;;;;;6.30;4.78;;;27.40;99.90;;;;;;5014198;28;20214;-53
2023/08/19 09:00:57;;;;;;;11.48;4.53;;;27.50;99.90;;;;;;5014773;28;20198;-51
2023/08/19 09:03:30;;;;;;;8.45;4.60;;;27.50;99.90;;;;;;5020980;28;20623;-52
2023/08/19 09:06:03;;;;;;;10.82;4.78;;;27.70;99.90;;;;;;5034164;28;20523;-49
2023/08/19 09:08:46;;;;;;;13.57;4.45;;;27.90;99.90;;;;;;5034128;28;20297;-52
2023/08/19 09:11:16;;;;;;;13.00;5.45;;;28.00;99.90;;;;;;5034357;28;20531;-52
2023/08/19 09:13:43;;;;;;;11.20;4.60;;;28.00;99.90;;;;;;5033890;28;20222;-47
2023/08/19 09:16:11;;;;;;;8.60;4.63;;;28.10;99.90;;;;;;5033989;28;20166;-50
2023/08/19 09:18:38;;;;;;;7.95;4.60;;;28.40;99.90;;;;;;5034707;28;20263;-49
2023/08/19 09:21:04;;;;;;;11.05;4.88;;;27.90;99.90;;;;;;5033642;28;20508;-47
2023/08/19 09:23:30;;;;;;;7.70;4.97;;;28.60;99.90;;;;;;5033958;28;20630;-45
2023/08/19 09:25:58;;;;;;;9.43;4.90;;;28.60;99.90;;;;;;5033947;28;20305;-49
2023/08/19 09:28:24;;;;;;;9.38;4.95;;;28.70;99.90;;;;;;5033901;28;20167;-50
2023/08/19 09:30:49;;;;;;;9.55;4.00;;;28.60;99.90;;;;;;5033765;28;20186;-48
2023/08/19 09:33:21;;;;;;;7.95;5.03;;;28.60;99.90;;;;;;5027958;28;20179;-45
2023/08/19 09:35:56;;;;;;;11.05;4.82;;;28.60;99.90;;;;;;5012681;28;20179;-51
2023/08/19 09:38:24;;;;;;;8.40;4.93;;;28.90;99.90;;;;;;5014138;28;20186;-50
2023/08/19 09:41:02;;;;;;;12.00;5.28;;;29.50;99.90;;;;;;5014191;28;20179;-46
2023/08/19 09:43:28;;;;;;;8.07;4.78;;;29.30;99.90;;;;;;5013890;28;20171;-49
2023/08/19 09:46:00;;;;;;;10.13;4.32;;;29.70;99.90;;;;;;5013758;28;20616;-50
2023/08/19 09:48:26;;;;;;;7.95;4.50;;;29.80;99.90;;;;;;5012336;28;20228;-45
2023/08/19 09:50:53;;;;;;;8.05;4.88;;;30.00;99.90;;;;;;5013654;28;20518;-45
2023/08/19 09:53:19;;;;;;;11.98;4.65;;;29.80;99.90;;;;;;5013884;28;20222;-45
2023/08/19 09:55:46;;;;;;;7.72;5.30;;;29.90;99.90;;;;;;5013515;28;20525;-45
2023/08/19 09:58:11;;;;;;;9.23;5.45;;;29.90;99.90;;;;;;5013524;28;20676;-45
2023/08/19 10:00:37;;;;;;;10.40;5.00;;;29.90;99.90;;;;;;5013408;28;20168;-45
2023/08/19 10:03:04;;;;;;;9.00;4.72;;;29.90;99.90;;;;;;5021999;28;20179;-46
2023/08/19 10:05:34;;;;;;;8.60;4.20;;;30.20;99.90;;;;;;5033174;28;20167;-45
2023/08/19 10:08:03;;;;;;;9.52;4.68;;;30.40;99.90;;;;;;5033220;28;20167;-45
2023/08/19 10:10:36;;;;;;;8.43;4.20;;;30.60;99.90;;;;;;5033306;28;20274;-46
2023/08/19 10:13:04;;;;;;;10.07;4.90;;;30.40;99.90;;;;;;5033186;28;20210;-46
2023/08/19 10:15:32;;;;;;;9.95;4.63;;;30.50;99.90;;;;;;5031841;28;20171;-45
2023/08/19 10:18:02;;;;;;;7.72;4.50;;;30.70;99.90;;;;;;5033213;28;20203;-45
2023/08/19 10:20:31;;;;;;;7.72;4.28;;;30.80;99.90;;;;;;5031671;28;20536;-45
2023/08/19 10:23:00;;;;;;;10.05;4.70;;;30.70;99.90;;;;;;5032992;28;20261;-45
2023/08/19 10:25:27;;;;;;;7.18;4.20;;;30.60;99.90;;;;;;5032979;28;20208;-45
2023/08/19 10:28:04;;;;;;;6.93;4.35;;;30.70;99.90;;;;;;5032816;28;20631;-45
2023/08/19 10:30:31;;;;;;;5.80;4.28;;;30.60;99.90;;;;;;5032661;28;20174;-45
2023/08/19 10:33:21;;;;;;;8.25;4.90;;;30.30;99.90;;;;;;5025256;28;20254;-45
2023/08/19 10:36:00;;;;;;;6.85;4.30;;;29.90;99.90;;;;;;5012793;28;20625;-45
2023/08/19 10:38:39;;;;;;;5.70;4.32;;;29.60;99.90;;;;;;5012798;28;20298;-45
2023/08/19 10:41:16;;;;;;;6.15;4.25;;;29.60;99.90;;;;;;5013331;28;20178;-45
2023/08/19 10:43:57;;;;;;;8.48;4.78;;;29.70;99.90;;;;;;5012857;28;20171;-45
2023/08/19 10:46:42;;;;;;;6.28;4.65;;;29.80;99.90;;;;;;5012700;28;20245;-46
2023/08/19 10:49:18;;;;;;;8.43;4.97;;;30.00;99.90;;;;;;5012928;28;20246;-44
2023/08/19 10:51:48;;;;;;;8.13;5.03;;;30.00;99.90;;;;;;5012521;28;20163;-45
2023/08/19 10:54:23;;;;;;;9.80;5.13;;;30.10;99.90;;;;;;5012790;28;20179;-45
2023/08/19 10:57:05;;;;;;;6.97;5.18;;;30.30;99.90;;;;;;5012408;28;20639;-45
2023/08/19 10:59:33;;;;;;;6.07;5.30;;;30.30;99.90;;;;;;5012440;28;20171;-45
2023/08/19 11:01:59;;;;;;;9.13;5.35;;;30.40;99.90;;;;;;5016011;28;20175;-44
2023/08/19 11:04:25;;;;;;;10.38;6.05;;;30.40;99.90;;;;;;5031913;28;20174;-45
2023/08/19 11:06:55;;;;;;;11.38;6.10;;;30.30;99.90;;;;;;5032082;28;20228;-45
2023/08/19 11:09:24;;;;;;;6.13;5.22;;;30.30;99.90;;;;;;5032205;28;20178;-45
2023/08/19 11:11:50;;;;;;;11.18;5.85;;;30.40;99.90;;;;;;5031794;28;20193;-45
2023/08/19 11:14:17;;;;;;;7.28;5.80;;;30.30;99.90;;;;;;5031812;28;20210;-45
2023/08/19 11:16:58;;;;;;;8.02;5.45;;;30.20;99.90;;;;;;5031981;28;20218;-45
2023/08/19 11:19:25;;;;;;;9.35;5.82;;;30.20;99.90;;;;;;5031687;28;20166;-45
2023/08/19 11:21:51;;;;;;;6.35;5.72;;;30.30;99.90;;;;;;5031715;28;20653;-45
2023/08/19 11:24:16;;;;;;;9.68;5.72;;;30.40;99.90;;;;;;5028974;28;20262;-45
2023/08/19 11:26:44;;;;;;;7.28;5.55;;;30.40;99.90;;;;;;5011963;28;20636;-45
2023/08/19 11:29:11;;;;;;;9.30;5.57;;;30.40;99.90;;;;;;5012022;28;20190;-46
2023/08/19 11:31:38;;;;;;;13.02;5.65;;;30.50;99.90;;;;;;5012259;28;20250;-45
2023/08/19 11:34:12;;;;;;;6.15;5.35;;;30.40;99.90;;;;;;5012297;28;20225;-45
2023/08/19 11:36:39;;;;;;;9.60;5.70;;;30.20;99.90;;;;;;5011765;28;20210;-46
2023/08/19 11:39:06;;;;;;;6.85;5.60;;;30.10;99.90;;;;;;5012299;28;20171;-46
2023/08/19 11:41:33;;;;;;;8.80;6.40;;;30.20;99.90;;;;;;5011767;28;20226;-45
2023/08/19 11:44:00;;;;;;;11.93;7.70;;;30.20;99.90;;;;;;5011780;28;20175;-45
2023/08/19 11:46:34;;;;;;;11.68;6.85;;;30.00;99.90;;;;;;5011796;28;20180;-46
2023/08/19 11:49:05;;;;;;;7.25;6.00;;;29.90;99.90;;;;;;5011970;28;20159;-46
2023/08/19 11:51:31;;;;;;;8.15;6.35;;;29.60;99.90;;;;;;5011657;28;20624;-45
2023/08/19 11:54:08;;;;;;;7.50;6.68;;;29.50;99.90;;;;;;5011590;28;20178;-45
2023/08/19 11:56:51;;;;;;;8.27;6.53;;;29.50;99.90;;;;;;5029314;28;20301;-45
2023/08/19 11:59:18;;;;;;;11.20;7.35;;;29.40;99.90;;;;;;5031398;28;20171;-45
2023/08/19 12:01:47;;;;;;;9.23;7.35;;;29.30;99.90;;;;;;5031323;28;20578;-45
2023/08/19 12:04:15;;;;;;;12.02;7.60;;;29.10;99.90;;;;;;5031258;28;20163;-45
2023/08/19 12:06:42;;;;;;;8.50;7.00;;;29.00;99.90;;;;;;5031433;28;20174;-46
2023/08/19 12:09:08;;;;;;;10.23;8.50;;;28.90;99.90;;;;;;5031289;28;20159;-45
2023/08/19 12:11:38;;;;;;;12.55;7.82;;;29.00;99.90;;;;;;5031722;28;20163;-47
2023/08/19 12:14:05;;;;;;;8.55;7.40;;;28.90;99.90;;;;;;5031477;28;20221;-45
2023/08/19 12:16:30;;;;;;;9.32;7.78;;;28.90;99.90;;;;;;5031102;28;20197;-45
2023/08/19 12:18:59;;;;;;;8.48;7.38;;;29.00;99.90;;;;;;5031185;28;20171;-45
2023/08/19 12:21:25;;;;;;;9.93;7.82;;;29.00;99.90;;;;;;5031418;28;20177;-45
2023/08/19 12:23:51;;;;;;;12.13;9.07;;;29.10;99.90;;;;;;5031098;28;20170;-45
2023/08/19 12:26:17;;;;;;;11.13;8.93;;;29.10;99.90;;;;;;5015178;28;20179;-45
2023/08/19 12:28:43;;;;;;;12.88;7.68;;;29.10;99.90;;;;;;5011606;28;20222;-45
2023/08/19 12:31:09;;;;;;;12.05;8.05;;;29.00;99.90;;;;;;5011340;28;20172;-45
2023/08/19 12:33:35;;;;;;;8.73;7.50;;;28.90;99.90;;;;;;5011745;28;20230;-45
2023/08/19 12:36:01;;;;;;;8.73;7.90;;;28.70;99.90;;;;;;5011251;28;20167;-46
2023/08/19 12:38:27;;;;;;;8.63;6.93;;;28.70;99.90;;;;;;5011557;28;20186;-45
2023/08/19 12:40:53;;;;;;;9.88;7.93;;;28.70;99.90;;;;;;5011256;28;20631;-45
2023/08/19 12:43:18;;;;;;;10.95;7.68;;;28.60;99.90;;;;;;5011084;28;20171;-45